Aviation Digital Data Service (ADDS)

Output produced by METARs form (0309 UTC 18 August 2017)
found at http://www.aviationweather.gov/adds/metars/
 
SYCJ 180300Z VRB02KT CAVOK 25/24 Q1011 NOSIG
TAF SYCJ 172300Z 1800/1824 07006KT 9999 SCT015 
     BECMG 1805/1807 VRB02KT 4000 BR SCT012 SCT038 
     BECMG 1812/1814 08014KT 9999 BKN018 
     TEMPO 1815/1818 6000 SHRA FEW015CB BKN016